sensor_id;sensor_type;location;lat;lon;timestamp;P1;durP1;ratioP1;P2;durP2;ratioP2
64842;SDS011;51310;52.198;5.422;2022-12-29T00:02:23;5.83;;;2.90;;
64842;SDS011;51310;52.198;5.422;2022-12-29T00:04:49;5.10;;;3.10;;
64842;SDS011;51310;52.198;5.422;2022-12-29T00:07:16;4.43;;;2.90;;
64842;SDS011;51310;52.198;5.422;2022-12-29T00:09:42;4.60;;;2.50;;
64842;SDS011;51310;52.198;5.422;2022-12-29T00:12:08;3.70;;;2.30;;
64842;SDS011;51310;52.198;5.422;2022-12-29T00:14:34;5.17;;;2.40;;
64842;SDS011;51310;52.198;5.422;2022-12-29T00:17:18;3.72;;;2.20;;
64842;SDS011;51310;52.198;5.422;2022-12-29T00:19:43;3.78;;;2.20;;
64842;SDS011;51310;52.198;5.422;2022-12-29T00:22:28;3.28;;;2.20;;
64842;SDS011;51310;52.198;5.422;2022-12-29T00:25:12;5.50;;;2.20;;
64842;SDS011;51310;52.198;5.422;2022-12-29T00:27:57;2.17;;;1.80;;
64842;SDS011;51310;52.198;5.422;2022-12-29T00:30:42;4.20;;;2.22;;
64842;SDS011;51310;52.198;5.422;2022-12-29T00:33:29;3.08;;;1.90;;
64842;SDS011;51310;52.198;5.422;2022-12-29T00:36:16;3.10;;;2.10;;
64842;SDS011;51310;52.198;5.422;2022-12-29T00:39:12;2.92;;;2.00;;
64842;SDS011;51310;52.198;5.422;2022-12-29T00:42:06;3.47;;;1.90;;
64842;SDS011;51310;52.198;5.422;2022-12-29T00:44:52;2.80;;;2.08;;
64842;SDS011;51310;52.198;5.422;2022-12-29T00:47:17;3.57;;;2.10;;
64842;SDS011;51310;52.198;5.422;2022-12-29T00:49:43;3.43;;;1.90;;
64842;SDS011;51310;52.198;5.422;2022-12-29T00:52:10;2.07;;;1.50;;
64842;SDS011;51310;52.198;5.422;2022-12-29T00:54:38;6.15;;;1.92;;
64842;SDS011;51310;52.198;5.422;2022-12-29T00:57:06;4.25;;;2.22;;
64842;SDS011;51310;52.198;5.422;2022-12-29T00:59:34;3.03;;;1.90;;
64842;SDS011;51310;52.198;5.422;2022-12-29T01:02:01;3.38;;;1.77;;
64842;SDS011;51310;52.198;5.422;2022-12-29T01:04:27;2.87;;;1.87;;
64842;SDS011;51310;52.198;5.422;2022-12-29T01:06:53;4.20;;;2.00;;
64842;SDS011;51310;52.198;5.422;2022-12-29T01:09:19;2.40;;;1.48;;
64842;SDS011;51310;52.198;5.422;2022-12-29T01:12:04;2.60;;;1.35;;
64842;SDS011;51310;52.198;5.422;2022-12-29T01:14:32;3.97;;;1.90;;
64842;SDS011;51310;52.198;5.422;2022-12-29T01:16:57;3.53;;;1.65;;
64842;SDS011;51310;52.198;5.422;2022-12-29T01:19:23;3.70;;;1.60;;
64842;SDS011;51310;52.198;5.422;2022-12-29T01:21:50;3.08;;;1.65;;
64842;SDS011;51310;52.198;5.422;2022-12-29T01:24:17;3.53;;;1.60;;
64842;SDS011;51310;52.198;5.422;2022-12-29T01:26:44;3.22;;;1.55;;
64842;SDS011;51310;52.198;5.422;2022-12-29T01:29:11;3.25;;;1.38;;
64842;SDS011;51310;52.198;5.422;2022-12-29T01:31:37;4.05;;;1.50;;
64842;SDS011;51310;52.198;5.422;2022-12-29T01:34:03;3.97;;;1.30;;
64842;SDS011;51310;52.198;5.422;2022-12-29T01:36:29;2.70;;;1.60;;
64842;SDS011;51310;52.198;5.422;2022-12-29T01:38:55;3.00;;;1.63;;
64842;SDS011;51310;52.198;5.422;2022-12-29T01:41:21;4.05;;;1.70;;
64842;SDS011;51310;52.198;5.422;2022-12-29T01:48:46;5.38;;;1.95;;
64842;SDS011;51310;52.198;5.422;2022-12-29T01:51:15;3.05;;;1.92;;
64842;SDS011;51310;52.198;5.422;2022-12-29T01:53:41;3.22;;;1.80;;
64842;SDS011;51310;52.198;5.422;2022-12-29T01:56:10;4.10;;;2.57;;
64842;SDS011;51310;52.198;5.422;2022-12-29T01:58:41;4.60;;;2.03;;
64842;SDS011;51310;52.198;5.422;2022-12-29T02:01:12;3.63;;;2.25;;
64842;SDS011;51310;52.198;5.422;2022-12-29T02:03:40;4.55;;;2.05;;
64842;SDS011;51310;52.198;5.422;2022-12-29T02:06:14;3.30;;;1.90;;
64842;SDS011;51310;52.198;5.422;2022-12-29T02:08:47;3.53;;;1.95;;
64842;SDS011;51310;52.198;5.422;2022-12-29T02:11:17;6.18;;;2.05;;
64842;SDS011;51310;52.198;5.422;2022-12-29T02:13:43;2.95;;;1.80;;
64842;SDS011;51310;52.198;5.422;2022-12-29T02:22:30;4.20;;;1.60;;
64842;SDS011;51310;52.198;5.422;2022-12-29T02:25:41;3.80;;;1.73;;
64842;SDS011;51310;52.198;5.422;2022-12-29T02:31:41;2.45;;;1.73;;
64842;SDS011;51310;52.198;5.422;2022-12-29T02:34:47;2.60;;;1.50;;
64842;SDS011;51310;52.198;5.422;2022-12-29T02:37:41;4.22;;;1.35;;
64842;SDS011;51310;52.198;5.422;2022-12-29T02:40:46;4.63;;;2.00;;
64842;SDS011;51310;52.198;5.422;2022-12-29T02:43:35;3.13;;;1.60;;
64842;SDS011;51310;52.198;5.422;2022-12-29T02:46:27;6.03;;;1.70;;
64842;SDS011;51310;52.198;5.422;2022-12-29T02:49:06;5.78;;;1.60;;
64842;SDS011;51310;52.198;5.422;2022-12-29T02:54:12;4.75;;;1.60;;
64842;SDS011;51310;52.198;5.422;2022-12-29T02:56:59;3.40;;;1.30;;
64842;SDS011;51310;52.198;5.422;2022-12-29T02:59:25;4.67;;;1.30;;
64842;SDS011;51310;52.198;5.422;2022-12-29T03:02:07;4.10;;;1.10;;
64842;SDS011;51310;52.198;5.422;2022-12-29T03:04:57;1.70;;;0.80;;
64842;SDS011;51310;52.198;5.422;2022-12-29T03:10:50;2.78;;;1.10;;
64842;SDS011;51310;52.198;5.422;2022-12-29T03:13:29;3.53;;;0.88;;
64842;SDS011;51310;52.198;5.422;2022-12-29T03:22:03;3.90;;;1.40;;
64842;SDS011;51310;52.198;5.422;2022-12-29T03:24:52;6.60;;;1.00;;
64842;SDS011;51310;52.198;5.422;2022-12-29T03:27:29;4.18;;;0.95;;
64842;SDS011;51310;52.198;5.422;2022-12-29T03:30:02;5.20;;;0.98;;
64842;SDS011;51310;52.198;5.422;2022-12-29T03:32:32;4.27;;;1.40;;
64842;SDS011;51310;52.198;5.422;2022-12-29T03:35:04;3.95;;;0.95;;
64842;SDS011;51310;52.198;5.422;2022-12-29T03:37:36;4.00;;;1.05;;
64842;SDS011;51310;52.198;5.422;2022-12-29T03:40:07;3.78;;;1.02;;
64842;SDS011;51310;52.198;5.422;2022-12-29T03:42:35;4.32;;;1.00;;
64842;SDS011;51310;52.198;5.422;2022-12-29T03:45:04;2.65;;;0.90;;
64842;SDS011;51310;52.198;5.422;2022-12-29T03:47:32;2.80;;;0.85;;
64842;SDS011;51310;52.198;5.422;2022-12-29T03:49:57;3.63;;;0.82;;
64842;SDS011;51310;52.198;5.422;2022-12-29T03:52:23;3.35;;;0.93;;
64842;SDS011;51310;52.198;5.422;2022-12-29T03:54:49;3.25;;;1.00;;
64842;SDS011;51310;52.198;5.422;2022-12-29T03:57:14;7.50;;;1.10;;
64842;SDS011;51310;52.198;5.422;2022-12-29T03:59:40;5.60;;;1.00;;
64842;SDS011;51310;52.198;5.422;2022-12-29T04:02:06;5.97;;;1.20;;
64842;SDS011;51310;52.198;5.422;2022-12-29T04:04:32;4.23;;;1.37;;
64842;SDS011;51310;52.198;5.422;2022-12-29T04:06:57;4.47;;;0.90;;
64842;SDS011;51310;52.198;5.422;2022-12-29T04:09:23;4.70;;;1.10;;
64842;SDS011;51310;52.198;5.422;2022-12-29T04:11:49;4.57;;;1.50;;
64842;SDS011;51310;52.198;5.422;2022-12-29T04:14:14;2.40;;;0.90;;
64842;SDS011;51310;52.198;5.422;2022-12-29T04:16:40;3.40;;;1.20;;
64842;SDS011;51310;52.198;5.422;2022-12-29T04:19:06;5.43;;;2.17;;
64842;SDS011;51310;52.198;5.422;2022-12-29T04:21:32;3.42;;;1.25;;
64842;SDS011;51310;52.198;5.422;2022-12-29T04:23:59;3.00;;;1.27;;
64842;SDS011;51310;52.198;5.422;2022-12-29T04:26:25;4.82;;;1.20;;
64842;SDS011;51310;52.198;5.422;2022-12-29T04:28:50;6.53;;;1.40;;
64842;SDS011;51310;52.198;5.422;2022-12-29T04:31:16;4.03;;;1.25;;
64842;SDS011;51310;52.198;5.422;2022-12-29T04:33:42;4.32;;;1.27;;
64842;SDS011;51310;52.198;5.422;2022-12-29T04:36:08;3.20;;;1.00;;
64842;SDS011;51310;52.198;5.422;2022-12-29T04:38:34;4.85;;;1.30;;
64842;SDS011;51310;52.198;5.422;2022-12-29T04:41:00;3.78;;;1.42;;
64842;SDS011;51310;52.198;5.422;2022-12-29T04:43:26;4.50;;;1.40;;
64842;SDS011;51310;52.198;5.422;2022-12-29T04:45:53;6.13;;;1.10;;
64842;SDS011;51310;52.198;5.422;2022-12-29T04:48:19;7.87;;;1.10;;
64842;SDS011;51310;52.198;5.422;2022-12-29T04:50:47;5.47;;;1.33;;
64842;SDS011;51310;52.198;5.422;2022-12-29T04:53:14;6.32;;;1.38;;
64842;SDS011;51310;52.198;5.422;2022-12-29T04:55:41;6.10;;;1.45;;
64842;SDS011;51310;52.198;5.422;2022-12-29T04:58:07;6.07;;;1.25;;
64842;SDS011;51310;52.198;5.422;2022-12-29T05:00:33;6.40;;;1.80;;
64842;SDS011;51310;52.198;5.422;2022-12-29T05:02:59;4.75;;;0.90;;
64842;SDS011;51310;52.198;5.422;2022-12-29T05:05:25;5.20;;;1.13;;
64842;SDS011;51310;52.198;5.422;2022-12-29T05:07:51;3.37;;;0.87;;
64842;SDS011;51310;52.198;5.422;2022-12-29T05:10:16;7.43;;;1.67;;
64842;SDS011;51310;52.198;5.422;2022-12-29T05:12:42;5.03;;;1.33;;
64842;SDS011;51310;52.198;5.422;2022-12-29T05:15:09;6.43;;;1.70;;
64842;SDS011;51310;52.198;5.422;2022-12-29T05:17:36;5.63;;;1.25;;
64842;SDS011;51310;52.198;5.422;2022-12-29T05:20:03;8.70;;;1.65;;
64842;SDS011;51310;52.198;5.422;2022-12-29T05:22:30;6.00;;;1.30;;
64842;SDS011;51310;52.198;5.422;2022-12-29T05:24:56;12.63;;;2.28;;
64842;SDS011;51310;52.198;5.422;2022-12-29T05:27:21;8.27;;;1.73;;
64842;SDS011;51310;52.198;5.422;2022-12-29T05:29:47;10.38;;;1.83;;
64842;SDS011;51310;52.198;5.422;2022-12-29T05:32:13;6.88;;;1.60;;
64842;SDS011;51310;52.198;5.422;2022-12-29T05:34:39;12.13;;;1.77;;
64842;SDS011;51310;52.198;5.422;2022-12-29T05:37:04;11.77;;;1.80;;
64842;SDS011;51310;52.198;5.422;2022-12-29T05:39:30;13.23;;;1.75;;
64842;SDS011;51310;52.198;5.422;2022-12-29T05:41:56;15.13;;;1.90;;
64842;SDS011;51310;52.198;5.422;2022-12-29T05:44:22;9.60;;;2.10;;
64842;SDS011;51310;52.198;5.422;2022-12-29T05:46:48;15.63;;;2.28;;
64842;SDS011;51310;52.198;5.422;2022-12-29T05:49:13;10.90;;;2.20;;
64842;SDS011;51310;52.198;5.422;2022-12-29T05:51:40;10.20;;;2.00;;
64842;SDS011;51310;52.198;5.422;2022-12-29T05:54:06;10.02;;;1.75;;
64842;SDS011;51310;52.198;5.422;2022-12-29T05:56:31;14.90;;;1.80;;
64842;SDS011;51310;52.198;5.422;2022-12-29T05:58:57;10.75;;;2.47;;
64842;SDS011;51310;52.198;5.422;2022-12-29T06:01:23;11.70;;;2.00;;
64842;SDS011;51310;52.198;5.422;2022-12-29T06:03:49;7.80;;;2.30;;
64842;SDS011;51310;52.198;5.422;2022-12-29T06:06:14;13.03;;;2.50;;
64842;SDS011;51310;52.198;5.422;2022-12-29T06:08:40;8.63;;;2.60;;
64842;SDS011;51310;52.198;5.422;2022-12-29T06:11:06;12.50;;;2.33;;
64842;SDS011;51310;52.198;5.422;2022-12-29T06:13:32;9.87;;;1.73;;
64842;SDS011;51310;52.198;5.422;2022-12-29T06:15:58;13.87;;;1.90;;
64842;SDS011;51310;52.198;5.422;2022-12-29T06:18:23;12.37;;;2.40;;
64842;SDS011;51310;52.198;5.422;2022-12-29T06:20:49;12.77;;;2.43;;
64842;SDS011;51310;52.198;5.422;2022-12-29T06:23:15;14.33;;;2.10;;
64842;SDS011;51310;52.198;5.422;2022-12-29T06:25:41;8.93;;;2.05;;
64842;SDS011;51310;52.198;5.422;2022-12-29T06:28:07;13.35;;;2.58;;
64842;SDS011;51310;52.198;5.422;2022-12-29T06:30:33;12.02;;;2.72;;
64842;SDS011;51310;52.198;5.422;2022-12-29T06:32:58;6.78;;;1.50;;
64842;SDS011;51310;52.198;5.422;2022-12-29T06:35:24;9.13;;;2.72;;
64842;SDS011;51310;52.198;5.422;2022-12-29T06:37:50;11.45;;;2.03;;
64842;SDS011;51310;52.198;5.422;2022-12-29T06:40:16;12.10;;;2.40;;
64842;SDS011;51310;52.198;5.422;2022-12-29T06:42:42;15.88;;;2.72;;
64842;SDS011;51310;52.198;5.422;2022-12-29T06:45:08;11.98;;;2.13;;
64842;SDS011;51310;52.198;5.422;2022-12-29T06:47:35;9.52;;;2.70;;
64842;SDS011;51310;52.198;5.422;2022-12-29T06:50:01;16.63;;;2.40;;
64842;SDS011;51310;52.198;5.422;2022-12-29T06:52:28;12.30;;;2.20;;
64842;SDS011;51310;52.198;5.422;2022-12-29T06:54:54;10.30;;;2.10;;
64842;SDS011;51310;52.198;5.422;2022-12-29T06:57:20;11.88;;;2.35;;
64842;SDS011;51310;52.198;5.422;2022-12-29T06:59:46;12.30;;;2.55;;
64842;SDS011;51310;52.198;5.422;2022-12-29T07:02:12;9.25;;;2.10;;
64842;SDS011;51310;52.198;5.422;2022-12-29T07:04:43;10.93;;;2.40;;
64842;SDS011;51310;52.198;5.422;2022-12-29T07:07:08;18.33;;;2.88;;
64842;SDS011;51310;52.198;5.422;2022-12-29T07:09:34;10.73;;;2.10;;
64842;SDS011;51310;52.198;5.422;2022-12-29T07:12:00;12.03;;;2.23;;
64842;SDS011;51310;52.198;5.422;2022-12-29T07:14:25;10.87;;;2.30;;
64842;SDS011;51310;52.198;5.422;2022-12-29T07:16:51;11.10;;;2.53;;
64842;SDS011;51310;52.198;5.422;2022-12-29T07:19:17;11.17;;;2.57;;
64842;SDS011;51310;52.198;5.422;2022-12-29T07:21:42;11.75;;;2.10;;
64842;SDS011;51310;52.198;5.422;2022-12-29T07:24:08;8.48;;;2.60;;
64842;SDS011;51310;52.198;5.422;2022-12-29T07:26:34;9.35;;;2.30;;
64842;SDS011;51310;52.198;5.422;2022-12-29T07:29:01;7.30;;;1.55;;
64842;SDS011;51310;52.198;5.422;2022-12-29T07:31:28;10.25;;;1.77;;
64842;SDS011;51310;52.198;5.422;2022-12-29T07:33:54;10.40;;;1.50;;
64842;SDS011;51310;52.198;5.422;2022-12-29T07:36:19;8.50;;;1.50;;
64842;SDS011;51310;52.198;5.422;2022-12-29T07:38:45;9.60;;;1.40;;
64842;SDS011;51310;52.198;5.422;2022-12-29T07:41:11;10.68;;;1.95;;
64842;SDS011;51310;52.198;5.422;2022-12-29T07:43:37;13.30;;;2.15;;
64842;SDS011;51310;52.198;5.422;2022-12-29T07:46:02;12.88;;;3.10;;
64842;SDS011;51310;52.198;5.422;2022-12-29T07:48:28;9.63;;;1.90;;
64842;SDS011;51310;52.198;5.422;2022-12-29T07:50:54;10.10;;;1.80;;
64842;SDS011;51310;52.198;5.422;2022-12-29T07:53:20;9.57;;;1.70;;
64842;SDS011;51310;52.198;5.422;2022-12-29T07:55:46;11.10;;;2.30;;
64842;SDS011;51310;52.198;5.422;2022-12-29T07:58:11;8.82;;;2.03;;
64842;SDS011;51310;52.198;5.422;2022-12-29T08:00:37;9.35;;;1.67;;
64842;SDS011;51310;52.198;5.422;2022-12-29T08:03:04;10.52;;;2.67;;
64842;SDS011;51310;52.198;5.422;2022-12-29T08:05:33;10.50;;;2.50;;
64842;SDS011;51310;52.198;5.422;2022-12-29T08:07:59;12.32;;;2.28;;
64842;SDS011;51310;52.198;5.422;2022-12-29T08:10:26;9.00;;;2.00;;
64842;SDS011;51310;52.198;5.422;2022-12-29T08:12:51;15.10;;;2.90;;
64842;SDS011;51310;52.198;5.422;2022-12-29T08:15:17;17.80;;;2.90;;
64842;SDS011;51310;52.198;5.422;2022-12-29T08:17:43;10.57;;;2.10;;
64842;SDS011;51310;52.198;5.422;2022-12-29T08:20:08;14.83;;;2.30;;
64842;SDS011;51310;52.198;5.422;2022-12-29T08:22:35;14.38;;;2.05;;
64842;SDS011;51310;52.198;5.422;2022-12-29T08:25:00;11.25;;;2.25;;
64842;SDS011;51310;52.198;5.422;2022-12-29T08:27:27;8.93;;;2.37;;
64842;SDS011;51310;52.198;5.422;2022-12-29T08:29:52;9.07;;;1.97;;
64842;SDS011;51310;52.198;5.422;2022-12-29T08:32:18;14.47;;;2.20;;
64842;SDS011;51310;52.198;5.422;2022-12-29T08:34:44;10.03;;;2.33;;
64842;SDS011;51310;52.198;5.422;2022-12-29T08:37:10;10.90;;;2.53;;
64842;SDS011;51310;52.198;5.422;2022-12-29T08:39:36;5.23;;;1.50;;
64842;SDS011;51310;52.198;5.422;2022-12-29T08:42:02;16.50;;;2.67;;
64842;SDS011;51310;52.198;5.422;2022-12-29T08:44:28;13.77;;;1.90;;
64842;SDS011;51310;52.198;5.422;2022-12-29T08:46:53;12.38;;;2.70;;
64842;SDS011;51310;52.198;5.422;2022-12-29T08:49:19;13.88;;;3.55;;
64842;SDS011;51310;52.198;5.422;2022-12-29T08:51:45;7.90;;;2.20;;
64842;SDS011;51310;52.198;5.422;2022-12-29T08:54:10;10.20;;;2.70;;
64842;SDS011;51310;52.198;5.422;2022-12-29T08:56:36;16.73;;;2.38;;
64842;SDS011;51310;52.198;5.422;2022-12-29T08:59:02;16.13;;;2.33;;
64842;SDS011;51310;52.198;5.422;2022-12-29T09:01:27;13.20;;;3.00;;
64842;SDS011;51310;52.198;5.422;2022-12-29T09:03:55;16.23;;;2.50;;
64842;SDS011;51310;52.198;5.422;2022-12-29T09:06:21;16.00;;;3.00;;
64842;SDS011;51310;52.198;5.422;2022-12-29T09:08:46;13.32;;;2.65;;
64842;SDS011;51310;52.198;5.422;2022-12-29T09:11:20;11.48;;;2.20;;
64842;SDS011;51310;52.198;5.422;2022-12-29T09:13:49;13.02;;;1.92;;
64842;SDS011;51310;52.198;5.422;2022-12-29T09:16:16;10.70;;;2.45;;
64842;SDS011;51310;52.198;5.422;2022-12-29T09:18:42;13.20;;;2.33;;
64842;SDS011;51310;52.198;5.422;2022-12-29T09:21:09;10.93;;;1.80;;
64842;SDS011;51310;52.198;5.422;2022-12-29T09:23:36;16.33;;;2.47;;
64842;SDS011;51310;52.198;5.422;2022-12-29T09:26:03;14.55;;;2.70;;
64842;SDS011;51310;52.198;5.422;2022-12-29T09:28:29;12.45;;;2.05;;
64842;SDS011;51310;52.198;5.422;2022-12-29T09:30:56;12.23;;;1.63;;
64842;SDS011;51310;52.198;5.422;2022-12-29T09:33:22;10.80;;;2.50;;
64842;SDS011;51310;52.198;5.422;2022-12-29T09:35:53;11.32;;;2.05;;
64842;SDS011;51310;52.198;5.422;2022-12-29T09:38:23;14.50;;;2.45;;
64842;SDS011;51310;52.198;5.422;2022-12-29T09:40:52;12.27;;;2.50;;
64842;SDS011;51310;52.198;5.422;2022-12-29T09:43:46;13.25;;;2.33;;
64842;SDS011;51310;52.198;5.422;2022-12-29T09:47:07;11.88;;;2.65;;
64842;SDS011;51310;52.198;5.422;2022-12-29T09:49:56;12.75;;;2.28;;
64842;SDS011;51310;52.198;5.422;2022-12-29T09:52:52;5.97;;;1.70;;
64842;SDS011;51310;52.198;5.422;2022-12-29T09:55:48;8.65;;;1.58;;
64842;SDS011;51310;52.198;5.422;2022-12-29T10:01:09;17.25;;;2.17;;
64842;SDS011;51310;52.198;5.422;2022-12-29T10:03:55;13.50;;;2.30;;
64842;SDS011;51310;52.198;5.422;2022-12-29T10:06:27;11.30;;;2.03;;
64842;SDS011;51310;52.198;5.422;2022-12-29T10:09:02;8.02;;;2.10;;
64842;SDS011;51310;52.198;5.422;2022-12-29T10:15:12;10.07;;;2.20;;
64842;SDS011;51310;52.198;5.422;2022-12-29T10:18:18;12.90;;;2.35;;
64842;SDS011;51310;52.198;5.422;2022-12-29T10:23:56;9.10;;;1.90;;
64842;SDS011;51310;52.198;5.422;2022-12-29T10:26:31;12.90;;;4.32;;
64842;SDS011;51310;52.198;5.422;2022-12-29T10:29:06;12.32;;;2.38;;
64842;SDS011;51310;52.198;5.422;2022-12-29T10:34:34;9.75;;;2.30;;
64842;SDS011;51310;52.198;5.422;2022-12-29T10:40:35;9.63;;;1.90;;
64842;SDS011;51310;52.198;5.422;2022-12-29T10:46:18;12.33;;;3.17;;
64842;SDS011;51310;52.198;5.422;2022-12-29T10:48:48;11.80;;;2.42;;
64842;SDS011;51310;52.198;5.422;2022-12-29T10:53:55;10.38;;;2.28;;
64842;SDS011;51310;52.198;5.422;2022-12-29T10:56:34;13.10;;;2.42;;
64842;SDS011;51310;52.198;5.422;2022-12-29T11:07:46;15.63;;;3.30;;
64842;SDS011;51310;52.198;5.422;2022-12-29T11:13:01;15.13;;;2.80;;
64842;SDS011;51310;52.198;5.422;2022-12-29T11:15:54;10.60;;;3.08;;
64842;SDS011;51310;52.198;5.422;2022-12-29T11:18:21;17.53;;;4.03;;
64842;SDS011;51310;52.198;5.422;2022-12-29T11:21:23;18.58;;;3.80;;
64842;SDS011;51310;52.198;5.422;2022-12-29T11:24:17;14.10;;;3.45;;
64842;SDS011;51310;52.198;5.422;2022-12-29T11:26:53;15.30;;;3.50;;
64842;SDS011;51310;52.198;5.422;2022-12-29T11:29:39;18.52;;;4.18;;
64842;SDS011;51310;52.198;5.422;2022-12-29T11:32:17;21.70;;;3.38;;
64842;SDS011;51310;52.198;5.422;2022-12-29T11:34:45;19.33;;;3.50;;
64842;SDS011;51310;52.198;5.422;2022-12-29T11:37:12;21.25;;;4.60;;
64842;SDS011;51310;52.198;5.422;2022-12-29T11:39:46;19.00;;;3.95;;
64842;SDS011;51310;52.198;5.422;2022-12-29T11:42:23;18.50;;;3.63;;
64842;SDS011;51310;52.198;5.422;2022-12-29T11:47:45;16.88;;;4.03;;
64842;SDS011;51310;52.198;5.422;2022-12-29T11:50:19;18.07;;;3.20;;
64842;SDS011;51310;52.198;5.422;2022-12-29T11:53:00;15.93;;;3.50;;
64842;SDS011;51310;52.198;5.422;2022-12-29T11:55:38;12.75;;;4.07;;
64842;SDS011;51310;52.198;5.422;2022-12-29T11:58:04;22.60;;;4.47;;
64842;SDS011;51310;52.198;5.422;2022-12-29T12:00:31;20.95;;;3.55;;
64842;SDS011;51310;52.198;5.422;2022-12-29T12:03:04;19.42;;;3.38;;
64842;SDS011;51310;52.198;5.422;2022-12-29T12:05:50;15.55;;;3.22;;
64842;SDS011;51310;52.198;5.422;2022-12-29T12:08:45;19.05;;;4.28;;
64842;SDS011;51310;52.198;5.422;2022-12-29T12:11:37;19.38;;;3.50;;
64842;SDS011;51310;52.198;5.422;2022-12-29T12:14:18;15.07;;;3.58;;
64842;SDS011;51310;52.198;5.422;2022-12-29T12:16:53;20.05;;;4.10;;
64842;SDS011;51310;52.198;5.422;2022-12-29T12:19:40;24.20;;;4.05;;
64842;SDS011;51310;52.198;5.422;2022-12-29T12:22:15;25.88;;;4.65;;
64842;SDS011;51310;52.198;5.422;2022-12-29T12:24:53;18.42;;;4.55;;
64842;SDS011;51310;52.198;5.422;2022-12-29T12:27:42;16.45;;;3.28;;
64842;SDS011;51310;52.198;5.422;2022-12-29T12:30:24;16.77;;;3.22;;
64842;SDS011;51310;52.198;5.422;2022-12-29T12:33:14;17.13;;;3.30;;
64842;SDS011;51310;52.198;5.422;2022-12-29T12:36:39;17.38;;;4.10;;
64842;SDS011;51310;52.198;5.422;2022-12-29T12:39:17;15.48;;;3.25;;
64842;SDS011;51310;52.198;5.422;2022-12-29T12:52:14;19.83;;;3.50;;
64842;SDS011;51310;52.198;5.422;2022-12-29T13:20:39;15.40;;;3.35;;
64842;SDS011;51310;52.198;5.422;2022-12-29T13:34:59;13.52;;;2.85;;
64842;SDS011;51310;52.198;5.422;2022-12-29T13:38:10;12.32;;;2.95;;
64842;SDS011;51310;52.198;5.422;2022-12-29T13:40:59;15.05;;;3.65;;
64842;SDS011;51310;52.198;5.422;2022-12-29T13:43:39;16.25;;;3.53;;
64842;SDS011;51310;52.198;5.422;2022-12-29T13:46:10;15.65;;;2.63;;
64842;SDS011;51310;52.198;5.422;2022-12-29T13:48:55;15.60;;;2.97;;
64842;SDS011;51310;52.198;5.422;2022-12-29T13:51:29;15.10;;;3.35;;
64842;SDS011;51310;52.198;5.422;2022-12-29T13:56:31;17.73;;;3.78;;
64842;SDS011;51310;52.198;5.422;2022-12-29T13:59:25;73.40;;;27.88;;
64842;SDS011;51310;52.198;5.422;2022-12-29T14:02:24;51.95;;;19.80;;
64842;SDS011;51310;52.198;5.422;2022-12-29T14:07:45;17.85;;;3.63;;
64842;SDS011;51310;52.198;5.422;2022-12-29T14:10:32;15.18;;;3.17;;
64842;SDS011;51310;52.198;5.422;2022-12-29T14:13:14;20.42;;;6.13;;
64842;SDS011;51310;52.198;5.422;2022-12-29T14:15:54;13.63;;;4.32;;
64842;SDS011;51310;52.198;5.422;2022-12-29T14:18:23;14.52;;;3.20;;
64842;SDS011;51310;52.198;5.422;2022-12-29T14:21:08;20.23;;;2.60;;
64842;SDS011;51310;52.198;5.422;2022-12-29T14:23:39;8.82;;;2.13;;
64842;SDS011;51310;52.198;5.422;2022-12-29T14:26:10;4.93;;;1.75;;
64842;SDS011;51310;52.198;5.422;2022-12-29T14:28:54;9.68;;;2.55;;
64842;SDS011;51310;52.198;5.422;2022-12-29T14:36:36;10.07;;;2.10;;
64842;SDS011;51310;52.198;5.422;2022-12-29T14:39:05;10.23;;;1.95;;
64842;SDS011;51310;52.198;5.422;2022-12-29T14:47:37;6.35;;;1.92;;
64842;SDS011;51310;52.198;5.422;2022-12-29T14:50:22;5.28;;;1.58;;
64842;SDS011;51310;52.198;5.422;2022-12-29T14:58:18;9.50;;;1.95;;
64842;SDS011;51310;52.198;5.422;2022-12-29T15:00:51;9.20;;;1.80;;
64842;SDS011;51310;52.198;5.422;2022-12-29T15:05:47;6.97;;;2.00;;
64842;SDS011;51310;52.198;5.422;2022-12-29T15:08:24;8.25;;;2.05;;
64842;SDS011;51310;52.198;5.422;2022-12-29T15:11:18;10.63;;;1.95;;
64842;SDS011;51310;52.198;5.422;2022-12-29T15:13:48;10.02;;;1.95;;
64842;SDS011;51310;52.198;5.422;2022-12-29T15:16:32;10.13;;;2.25;;
64842;SDS011;51310;52.198;5.422;2022-12-29T15:19:01;12.85;;;2.00;;
64842;SDS011;51310;52.198;5.422;2022-12-29T15:21:30;10.30;;;2.50;;
64842;SDS011;51310;52.198;5.422;2022-12-29T15:24:00;7.95;;;2.22;;
64842;SDS011;51310;52.198;5.422;2022-12-29T15:26:40;11.80;;;2.70;;
64842;SDS011;51310;52.198;5.422;2022-12-29T15:29:30;12.65;;;2.28;;
64842;SDS011;51310;52.198;5.422;2022-12-29T15:32:16;11.00;;;2.70;;
64842;SDS011;51310;52.198;5.422;2022-12-29T15:34:46;8.38;;;1.92;;
64842;SDS011;51310;52.198;5.422;2022-12-29T15:37:19;19.02;;;6.18;;
64842;SDS011;51310;52.198;5.422;2022-12-29T15:39:52;13.35;;;2.60;;
64842;SDS011;51310;52.198;5.422;2022-12-29T15:45:11;13.82;;;4.25;;
64842;SDS011;51310;52.198;5.422;2022-12-29T15:47:39;16.00;;;3.30;;
64842;SDS011;51310;52.198;5.422;2022-12-29T15:50:26;9.77;;;2.80;;
64842;SDS011;51310;52.198;5.422;2022-12-29T15:52:55;12.30;;;2.50;;
64842;SDS011;51310;52.198;5.422;2022-12-29T15:55:30;12.70;;;3.40;;
64842;SDS011;51310;52.198;5.422;2022-12-29T15:58:01;8.38;;;1.95;;
64842;SDS011;51310;52.198;5.422;2022-12-29T16:00:31;9.82;;;2.90;;
64842;SDS011;51310;52.198;5.422;2022-12-29T16:03:01;10.13;;;2.50;;
64842;SDS011;51310;52.198;5.422;2022-12-29T16:05:37;10.52;;;2.30;;
64842;SDS011;51310;52.198;5.422;2022-12-29T16:08:20;10.38;;;3.38;;
64842;SDS011;51310;52.198;5.422;2022-12-29T16:10:57;12.15;;;3.72;;
64842;SDS011;51310;52.198;5.422;2022-12-29T16:13:30;15.65;;;2.80;;
64842;SDS011;51310;52.198;5.422;2022-12-29T16:16:24;11.43;;;2.93;;
64842;SDS011;51310;52.198;5.422;2022-12-29T16:19:02;9.43;;;2.00;;
64842;SDS011;51310;52.198;5.422;2022-12-29T16:21:46;9.30;;;2.20;;
64842;SDS011;51310;52.198;5.422;2022-12-29T16:24:16;13.52;;;2.63;;
64842;SDS011;51310;52.198;5.422;2022-12-29T16:26:51;7.90;;;2.45;;
64842;SDS011;51310;52.198;5.422;2022-12-29T16:29:33;12.40;;;2.78;;
64842;SDS011;51310;52.198;5.422;2022-12-29T16:32:00;9.48;;;3.03;;
64842;SDS011;51310;52.198;5.422;2022-12-29T16:37:48;11.48;;;2.70;;
64842;SDS011;51310;52.198;5.422;2022-12-29T16:40:13;7.28;;;2.42;;
64842;SDS011;51310;52.198;5.422;2022-12-29T16:48:10;10.60;;;3.17;;
64842;SDS011;51310;52.198;5.422;2022-12-29T16:50:45;8.35;;;2.50;;
64842;SDS011;51310;52.198;5.422;2022-12-29T16:56:25;10.48;;;2.38;;
64842;SDS011;51310;52.198;5.422;2022-12-29T16:59:00;8.55;;;2.38;;
64842;SDS011;51310;52.198;5.422;2022-12-29T17:01:31;8.93;;;2.15;;
64842;SDS011;51310;52.198;5.422;2022-12-29T17:04:05;9.68;;;3.88;;
64842;SDS011;51310;52.198;5.422;2022-12-29T17:06:35;9.95;;;2.35;;
64842;SDS011;51310;52.198;5.422;2022-12-29T17:09:01;11.77;;;4.07;;
64842;SDS011;51310;52.198;5.422;2022-12-29T17:11:30;16.05;;;5.10;;
64842;SDS011;51310;52.198;5.422;2022-12-29T17:14:23;8.25;;;2.20;;
64842;SDS011;51310;52.198;5.422;2022-12-29T17:17:00;5.97;;;2.20;;
64842;SDS011;51310;52.198;5.422;2022-12-29T17:19:30;9.73;;;2.22;;
64842;SDS011;51310;52.198;5.422;2022-12-29T17:22:00;8.13;;;1.92;;
64842;SDS011;51310;52.198;5.422;2022-12-29T17:24:26;15.27;;;2.83;;
64842;SDS011;51310;52.198;5.422;2022-12-29T17:26:53;15.68;;;3.47;;
64842;SDS011;51310;52.198;5.422;2022-12-29T17:31:57;13.23;;;2.63;;
64842;SDS011;51310;52.198;5.422;2022-12-29T17:34:24;11.60;;;2.55;;
64842;SDS011;51310;52.198;5.422;2022-12-29T17:36:50;12.48;;;3.72;;
64842;SDS011;51310;52.198;5.422;2022-12-29T17:39:16;10.40;;;1.85;;
64842;SDS011;51310;52.198;5.422;2022-12-29T17:41:42;10.43;;;2.00;;
64842;SDS011;51310;52.198;5.422;2022-12-29T17:44:09;9.23;;;2.50;;